Time;durP1;ratioP1;P1;durP2;ratioP2;P2;SDS_P1;SDS_P2;PMS_P1;PMS_P2;Temp;Humidity;BMP_temperature;BMP_pressure;BME280_temperature;BME280_humidity;BME280_pressure;Samples;Min_cycle;Max_cycle;Signal;HPM_P1;HPM_P2
2023/05/06 00:01:24;;;;;;;16.67;15.17;;;13.60;99.90;;;13.23;81.49;100996.59;5016599;28;20647;-73
2023/05/06 00:03:55;;;;;;;18.33;16.43;;;13.50;99.90;;;13.28;82.67;100994.25;5016733;28;20230;-73
2023/05/06 00:06:28;;;;;;;24.73;17.47;;;13.60;99.90;;;13.27;84.03;100995.25;5016674;28;20191;-73
2023/05/06 00:09:01;;;;;;;16.07;14.53;;;13.60;99.90;;;13.18;84.00;100991.72;5016197;28;20599;-73
2023/05/06 00:11:33;;;;;;;16.93;15.37;;;13.50;99.90;;;13.23;83.46;100996.59;5016597;28;20566;-73
2023/05/06 00:14:05;;;;;;;17.70;16.00;;;13.60;99.90;;;13.22;84.26;100989.53;5016663;28;20241;-73
2023/05/06 00:16:36;;;;;;;18.17;16.50;;;13.60;99.90;;;13.21;84.38;100998.63;5016171;28;20195;-73
2023/05/06 00:19:08;;;;;;;17.10;15.60;;;13.60;99.90;;;13.19;84.85;100985.34;5016351;28;20277;-73
2023/05/06 00:21:40;;;;;;;18.33;16.53;;;13.50;99.90;;;13.14;85.21;100985.03;5016394;28;20192;-74
2023/05/06 00:24:13;;;;;;;17.67;15.97;;;13.50;99.90;;;13.12;85.30;100988.88;5016033;28;20191;-74
2023/05/06 00:26:45;;;;;;;17.43;15.73;;;13.50;99.90;;;13.14;85.03;100986.88;5016948;28;20188;-74
2023/05/06 00:29:19;;;;;;;18.43;16.73;;;13.50;99.90;;;13.14;84.99;100981.50;5016165;28;20603;-74
2023/05/06 00:31:50;;;;;;;17.93;16.33;;;13.50;99.90;;;13.14;85.25;100985.03;5016120;28;20212;-74
2023/05/06 00:34:22;;;;;;;17.30;15.67;;;13.60;99.90;;;13.14;84.83;100985.03;5016133;28;20199;-74
2023/05/06 00:36:54;;;;;;;17.37;15.83;;;13.50;99.90;;;13.13;85.32;100985.19;5016187;28;20201;-74
2023/05/06 00:39:26;;;;;;;20.37;18.43;;;13.50;99.90;;;13.04;86.60;100986.19;5015664;28;20585;-74
2023/05/06 00:42:01;;;;;;;20.90;18.80;;;13.40;99.90;;;12.99;87.88;100981.31;5016050;28;20196;-74
2023/05/06 00:44:33;;;;;;;21.23;19.17;;;13.40;99.90;;;13.00;88.00;100984.84;5016151;28;20202;-73
2023/05/06 00:47:07;;;;;;;22.63;20.33;;;13.40;99.90;;;13.02;88.09;100982.81;5016056;28;20199;-73
2023/05/06 00:49:39;;;;;;;22.27;20.07;;;13.40;99.90;;;13.02;87.71;100977.44;5015694;28;20277;-73
2023/05/06 00:52:11;;;;;;;23.37;20.97;;;13.40;99.90;;;13.02;87.57;100980.13;5016022;28;20188;-73
2023/05/06 00:54:45;;;;;;;26.07;23.37;;;13.40;99.90;;;13.01;87.47;100981.16;5016040;28;20199;-73
2023/05/06 00:57:17;;;;;;;26.10;23.30;;;13.40;99.90;;;12.93;89.30;100978.47;5015646;28;20195;-73
2023/05/06 00:59:49;;;;;;;26.80;24.00;;;13.40;99.90;;;12.91;89.54;100986.69;5015810;28;20302;-73
2023/05/06 01:02:21;;;;;;;25.93;23.23;;;13.30;99.90;;;12.95;88.90;100982.66;5015794;28;20198;-73
2023/05/06 01:04:54;;;;;;;26.03;23.33;;;13.40;99.90;;;12.97;87.84;100985.19;5015700;28;20210;-73
2023/05/06 01:07:44;;;;;;;26.30;23.47;;;13.40;99.90;;;12.96;88.79;100983.50;5015544;28;20258;-73
2023/05/06 01:10:27;;;;;;;25.33;22.70;;;13.40;99.90;;;12.98;88.95;100994.94;5015534;28;20293;-73
2023/05/06 01:13:14;;;;;;;26.40;23.70;;;13.40;99.90;;;12.97;88.07;100993.25;5015379;28;20558;-73
2023/05/06 01:15:52;;;;;;;26.47;23.87;;;13.40;99.90;;;12.93;89.59;100994.59;5015542;28;20218;-73
2023/05/06 01:18:27;;;;;;;26.07;23.47;;;13.40;99.90;;;12.95;89.51;100997.94;5015495;28;20203;-73
2023/05/06 01:21:00;;;;;;;25.47;22.87;;;13.40;99.90;;;12.98;88.40;100997.63;5015294;28;20220;-73
2023/05/06 01:23:50;;;;;;;25.73;23.03;;;13.40;99.90;;;12.97;89.02;100998.63;5015989;28;20279;-73
2023/05/06 01:26:22;;;;;;;25.23;22.57;;;13.40;99.90;;;13.00;88.21;100987.53;5015457;28;20195;-73
2023/05/06 01:28:54;;;;;;;26.77;23.90;;;13.40;99.90;;;12.94;89.51;100990.91;5015171;28;20214;-73
2023/05/06 01:31:36;;;;;;;26.40;23.70;;;13.40;99.90;;;12.87;89.79;100989.91;5014853;28;20699;-73
2023/05/06 01:34:21;;;;;;;25.63;23.13;;;13.30;99.90;;;12.85;89.75;100992.75;5015429;28;20195;-73
2023/05/06 01:37:06;;;;;;;23.57;21.23;;;13.30;99.90;;;12.88;89.61;100991.56;5014874;28;20572;-73
2023/05/06 01:39:42;;;;;;;24.20;21.77;;;13.30;99.90;;;12.88;89.13;101002.31;5015539;28;20230;-73
2023/05/06 01:42:16;;;;;;;26.00;23.40;;;13.30;99.90;;;12.88;89.40;100997.78;5015010;28;20191;-73
2023/05/06 01:44:52;;;;;;;24.43;21.93;;;13.40;99.90;;;12.87;89.37;100995.28;5014721;28;20730;-73
2023/05/06 01:47:25;;;;;;;23.33;20.97;;;13.30;99.90;;;12.89;88.94;101001.31;5014986;28;20192;-73
2023/05/06 01:49:58;;;;;;;24.30;21.87;;;13.40;99.90;;;12.85;90.14;101002.63;5014903;28;20330;-73
2023/05/06 01:52:30;;;;;;;23.27;20.77;;;13.30;99.90;;;12.85;89.52;100992.75;5014967;28;20195;-73
2023/05/06 01:55:03;;;;;;;22.73;20.63;;;13.30;99.90;;;12.84;89.85;100996.44;5014926;28;20196;-73
2023/05/06 01:57:36;;;;;;;22.17;19.87;;;13.30;99.90;;;12.80;90.23;100999.63;5014832;28;20192;-73
2023/05/06 02:00:10;;;;;;;20.57;18.53;;;13.20;99.90;;;12.71;90.08;100990.72;5013881;28;20707;-73
2023/05/06 02:02:42;;;;;;;22.00;19.80;;;13.20;99.90;;;12.66;91.00;100995.78;5014773;28;20195;-73
2023/05/06 02:05:14;;;;;;;21.33;19.20;;;13.10;99.90;;;12.64;89.58;100990.56;5014770;28;20644;-73
2023/05/06 02:07:46;;;;;;;19.90;17.83;;;13.10;99.90;;;12.65;89.59;101000.31;5014963;28;20196;-73
2023/05/06 02:10:19;;;;;;;20.73;18.67;;;13.10;99.90;;;12.67;88.74;101002.84;5014512;28;20231;-73
2023/05/06 02:12:51;;;;;;;21.70;19.40;;;13.10;99.90;;;12.69;87.89;101004.34;5014569;28;20198;-73
2023/05/06 02:15:23;;;;;;;20.07;18.10;;;13.10;99.90;;;12.70;88.40;100995.25;5014304;28;20545;-73
2023/05/06 02:17:55;;;;;;;19.83;17.93;;;13.10;99.90;;;12.69;86.98;101007.03;5014230;28;20567;-73
2023/05/06 02:20:28;;;;;;;18.67;16.87;;;13.10;99.90;;;12.69;87.13;100996.28;5014430;28;20227;-73
2023/05/06 02:23:00;;;;;;;19.73;17.73;;;13.10;99.90;;;12.67;87.17;101005.53;5014497;28;20196;-73
2023/05/06 02:25:33;;;;;;;19.50;17.60;;;13.10;99.90;;;12.68;87.67;101007.19;5014297;28;20203;-73
2023/05/06 02:28:05;;;;;;;19.97;17.93;;;13.10;99.90;;;12.65;86.42;100997.63;5014477;28;20195;-73
2023/05/06 02:30:37;;;;;;;20.70;18.70;;;13.10;99.90;;;12.60;87.42;101004.50;5014096;28;20231;-73
2023/05/06 02:33:09;;;;;;;19.13;17.23;;;13.00;99.90;;;12.60;87.55;101016.06;5014107;28;20230;-73
2023/05/06 02:35:41;;;;;;;19.27;17.43;;;13.00;99.90;;;12.59;87.11;101006.34;5013858;28;20632;-73
2023/05/06 02:38:12;;;;;;;19.77;17.90;;;13.00;99.90;;;12.57;87.18;101005.66;5014149;28;20198;-73
2023/05/06 02:40:46;;;;;;;19.47;17.47;;;13.00;99.90;;;12.53;87.35;101000.81;5014094;28;20246;-73
2023/05/06 02:43:17;;;;;;;18.73;17.03;;;12.90;99.90;;;12.51;86.43;100998.28;5013976;28;20192;-73
2023/05/06 02:45:49;;;;;;;19.00;17.20;;;12.90;99.90;;;12.50;87.28;101010.00;5014213;28;20192;-74
2023/05/06 02:48:21;;;;;;;18.57;16.67;;;12.90;99.90;;;12.49;87.44;101007.50;5013947;28;20198;-74
2023/05/06 02:50:54;;;;;;;18.43;16.63;;;12.90;99.90;;;12.44;86.33;101002.63;5014874;28;20270;-74
2023/05/06 02:53:26;;;;;;;16.53;14.93;;;12.90;99.90;;;12.47;85.91;101002.28;5015507;28;20195;-74
2023/05/06 02:55:59;;;;;;;17.47;15.77;;;12.90;99.90;;;12.41;86.92;100994.91;5015039;28;20656;-74
2023/05/06 02:58:31;;;;;;;17.43;15.77;;;12.90;99.90;;;12.42;86.05;100999.28;5015024;28;20545;-74
2023/05/06 03:01:03;;;;;;;15.47;13.97;;;12.80;99.90;;;12.40;85.17;101001.28;5014442;28;20187;-74
2023/05/06 03:03:35;;;;;;;15.73;14.13;;;12.80;99.90;;;12.41;85.73;101007.50;5014120;28;20687;-74
2023/05/06 03:06:06;;;;;;;15.27;13.77;;;12.80;99.90;;;12.38;84.63;101005.13;5013998;28;20196;-74
2023/05/06 03:08:38;;;;;;;16.70;15.10;;;12.80;99.90;;;12.37;86.01;101004.28;5013804;28;20207;-75
2023/05/06 03:11:11;;;;;;;14.03;12.63;;;12.70;99.90;;;12.28;84.08;101002.59;5013902;28;20212;-74
2023/05/06 03:13:43;;;;;;;13.90;12.60;;;12.70;99.90;;;12.30;84.16;100997.91;5017425;28;20188;-74
2023/05/06 03:16:18;;;;;;;15.20;13.70;;;12.70;99.90;;;12.30;84.80;101002.44;5017985;28;20191;-74
2023/05/06 03:18:50;;;;;;;13.77;12.47;;;12.70;99.90;;;12.28;83.56;101002.59;5017866;28;20194;-74
2023/05/06 03:21:22;;;;;;;14.37;13.07;;;12.70;99.90;;;12.28;83.52;101002.59;5017849;28;20184;-74
2023/05/06 03:23:54;;;;;;;12.07;10.97;;;12.70;99.90;;;12.23;82.85;101001.41;5018034;28;20192;-74
2023/05/06 03:26:27;;;;;;;12.67;11.13;;;12.60;99.90;;;12.11;81.78;101006.25;5017308;28;20644;-74
2023/05/06 03:28:59;;;;;;;13.40;12.10;;;12.50;99.90;;;12.09;82.53;101002.88;5017649;28;20238;-74
2023/05/06 03:31:31;;;;;;;13.33;12.13;;;12.50;99.90;;;12.01;82.60;100993.00;5017403;28;20227;-74
2023/05/06 03:34:03;;;;;;;13.00;11.80;;;12.40;99.90;;;11.96;82.72;100995.31;5017266;28;20644;-74
2023/05/06 03:36:34;;;;;;;14.87;13.37;;;12.30;99.90;;;11.89;83.44;100990.75;5017452;28;20192;-74
2023/05/06 03:39:06;;;;;;;14.07;12.40;;;12.30;99.90;;;12.01;83.25;100997.50;5017101;28;20231;-74
2023/05/06 03:41:39;;;;;;;14.00;12.60;;;12.40;99.90;;;11.90;82.26;101000.47;5017438;28;20184;-74
2023/05/06 03:44:11;;;;;;;14.20;12.80;;;12.30;99.90;;;11.90;82.18;100992.44;5017042;28;20651;-74
2023/05/06 03:46:43;;;;;;;13.10;11.90;;;12.30;99.90;;;11.89;81.87;100993.44;5017412;28;20196;-74
2023/05/06 03:49:15;;;;;;;13.13;11.93;;;12.30;99.90;;;11.82;81.68;100998.59;5017316;28;20259;-74
2023/05/06 03:51:47;;;;;;;13.83;12.40;;;12.30;99.90;;;11.80;82.04;100992.56;5017187;28;20222;-74
2023/05/06 03:54:19;;;;;;;12.47;11.37;;;12.20;99.90;;;11.79;82.91;100996.25;5017195;28;20199;-74
2023/05/06 03:56:52;;;;;;;11.60;10.50;;;12.20;99.90;;;11.73;81.54;100988.84;5017203;28;20218;-74
2023/05/06 03:59:24;;;;;;;12.20;11.10;;;12.20;99.90;;;11.69;82.79;100993.66;5017039;28;20231;-74
2023/05/06 04:01:56;;;;;;;13.07;11.87;;;12.10;99.90;;;11.62;83.13;100998.00;5016871;28;20640;-74
2023/05/06 04:04:28;;;;;;;14.20;12.80;;;12.00;99.90;;;11.61;83.24;100993.63;5016698;28;20563;-74
2023/05/06 04:07:00;;;;;;;13.47;12.10;;;12.00;99.90;;;11.64;83.18;101012.06;5017047;28;20195;-74
2023/05/06 04:09:33;;;;;;;14.47;13.00;;;12.00;99.90;;;11.67;84.13;101003.72;5016994;28;20285;-74
2023/05/06 04:12:07;;;;;;;14.77;13.33;;;12.10;99.90;;;11.66;84.93;101004.72;5016700;28;20219;-74
2023/05/06 04:14:42;;;;;;;14.70;13.20;;;12.10;99.90;;;11.65;86.41;101003.03;5016868;28;20199;-74
2023/05/06 04:17:13;;;;;;;14.40;13.00;;;12.00;99.90;;;11.68;85.85;100997.34;5016443;28;20648;-74
2023/05/06 04:19:46;;;;;;;14.17;12.70;;;12.10;99.90;;;11.66;84.68;101015.44;5016785;28;20228;-74
2023/05/06 04:22:17;;;;;;;14.33;12.53;;;12.10;99.90;;;11.62;84.80;101007.88;5016329;28;20611;-74
2023/05/06 04:24:49;;;;;;;14.00;12.70;;;12.10;99.90;;;11.61;84.89;101012.41;5016278;28;20192;-74
2023/05/06 04:27:25;;;;;;;14.37;12.87;;;12.00;99.90;;;11.60;85.48;101016.09;5016616;28;20199;-74
2023/05/06 04:29:56;;;;;;;14.40;13.00;;;12.00;99.90;;;11.55;86.71;101022.94;5016500;28;20222;-74
2023/05/06 04:32:28;;;;;;;15.30;13.73;;;12.00;99.90;;;11.53;87.72;101027.63;5016393;28;20224;-74
2023/05/06 04:35:00;;;;;;;14.87;13.37;;;12.00;99.90;;;11.55;88.37;101021.09;5016338;28;20242;-74
2023/05/06 04:37:32;;;;;;;15.23;13.27;;;12.00;99.90;;;11.58;87.50;101022.59;5016563;28;20195;-74
2023/05/06 04:40:06;;;;;;;14.97;13.37;;;12.00;99.90;;;11.57;87.67;101024.47;5016493;28;20227;-74
2023/05/06 04:42:39;;;;;;;15.27;13.77;;;12.10;99.90;;;11.56;87.76;101028.13;5016288;28;20195;-74
2023/05/06 04:45:12;;;;;;;14.03;12.57;;;12.00;99.90;;;11.58;87.79;101023.44;5016042;28;20683;-74
2023/05/06 04:47:44;;;;;;;15.77;14.17;;;12.10;99.90;;;11.57;88.96;101029.00;5016180;28;20203;-74
2023/05/06 04:50:17;;;;;;;15.67;14.17;;;12.00;99.90;;;11.53;88.88;101031.16;5015880;28;20235;-74
2023/05/06 04:52:49;;;;;;;13.90;12.50;;;12.00;99.90;;;11.55;89.25;101029.13;5016079;28;20211;-74
2023/05/06 04:55:20;;;;;;;15.70;14.00;;;12.00;99.90;;;11.54;89.24;101027.44;5015925;28;20203;-74
2023/05/06 04:57:54;;;;;;;16.00;14.30;;;12.10;99.90;;;11.51;89.05;101027.75;5015680;28;20187;-74
2023/05/06 05:00:26;;;;;;;16.83;15.13;;;12.00;99.90;;;11.54;89.54;101029.31;5015812;28;20228;-74
2023/05/06 05:02:58;;;;;;;16.67;14.97;;;12.00;99.90;;;11.56;89.65;101030.81;5015419;28;20652;-74
2023/05/06 05:05:32;;;;;;;16.20;14.67;;;12.10;99.90;;;11.57;90.05;101031.66;5015514;28;20655;-74
2023/05/06 05:08:04;;;;;;;16.43;14.83;;;12.10;99.90;;;11.59;89.67;101043.06;5015495;28;20203;-74
2023/05/06 05:10:36;;;;;;;17.03;15.20;;;12.10;99.90;;;11.58;89.54;101047.59;5015853;28;20321;-74
2023/05/06 05:13:09;;;;;;;17.90;16.00;;;12.10;99.90;;;11.57;90.19;101047.75;5015466;28;20211;-74
2023/05/06 05:15:41;;;;;;;17.83;16.03;;;12.10;99.90;;;11.51;90.75;101049.22;5015467;28;20196;-74
2023/05/06 05:18:13;;;;;;;17.70;15.87;;;12.00;99.90;;;11.52;90.98;101048.22;5015396;28;20198;-74
2023/05/06 05:20:45;;;;;;;17.33;15.47;;;12.00;99.90;;;11.55;90.36;101052.41;5015570;28;20231;-74
2023/05/06 05:23:17;;;;;;;19.10;17.20;;;12.10;99.90;;;11.56;90.95;101046.06;5015313;28;20195;-74
2023/05/06 05:25:49;;;;;;;18.00;16.17;;;12.10;99.90;;;11.51;91.65;101048.38;5014894;28;20210;-74
2023/05/06 05:28:22;;;;;;;17.40;15.60;;;12.00;99.90;;;11.53;91.40;101052.59;5015173;28;20204;-74
2023/05/06 05:30:53;;;;;;;17.67;15.77;;;12.10;99.90;;;11.59;90.75;101051.09;5014893;28;20755;-74
2023/05/06 05:33:25;;;;;;;17.07;15.37;;;12.10;99.90;;;11.64;91.23;101054.16;5014899;28;20231;-74
2023/05/06 05:35:57;;;;;;;18.63;16.47;;;12.20;99.90;;;11.52;90.81;101045.53;5013807;28;20192;-74
2023/05/06 05:38:29;;;;;;;19.07;16.37;;;12.10;99.90;;;11.55;91.42;101050.59;5014819;28;20196;-74
2023/05/06 05:41:01;;;;;;;16.90;15.17;;;12.10;99.90;;;11.62;90.72;101058.84;5015117;28;20231;-74
2023/05/06 05:43:34;;;;;;;18.80;16.83;;;12.10;99.90;;;11.61;90.36;101066.03;5015011;28;20191;-75
2023/05/06 05:46:06;;;;;;;17.93;16.07;;;12.20;99.90;;;11.59;91.52;101070.72;5014908;28;20191;-74
2023/05/06 05:48:39;;;;;;;18.07;16.27;;;12.10;99.90;;;11.62;91.49;101083.81;5014719;28;20224;-75
2023/05/06 05:51:12;;;;;;;19.27;17.23;;;12.20;99.90;;;11.58;91.58;101074.41;5014573;28;20640;-74
2023/05/06 05:53:45;;;;;;;19.13;17.10;;;12.10;99.90;;;11.64;92.06;101087.16;5014761;28;20184;-74
2023/05/06 05:56:16;;;;;;;20.97;17.90;;;12.20;99.90;;;11.68;91.12;101093.91;5014822;28;20192;-74
2023/05/06 05:58:49;;;;;;;18.80;16.80;;;12.20;99.90;;;11.73;90.50;101090.78;5014549;28;20195;-74
2023/05/06 06:01:21;;;;;;;20.23;18.13;;;12.30;99.90;;;11.69;91.59;101095.59;5014382;28;20655;-74
2023/05/06 06:03:54;;;;;;;20.53;18.30;;;12.20;99.90;;;11.73;91.25;101097.97;5014587;28;20187;-74
2023/05/06 06:06:27;;;;;;;19.90;17.80;;;12.20;99.90;;;11.73;91.46;101092.63;5014225;28;20559;-74
2023/05/06 06:08:58;;;;;;;21.20;18.57;;;12.20;99.90;;;11.74;90.67;101099.69;5014253;28;20239;-74
2023/05/06 06:11:30;;;;;;;20.83;18.77;;;12.30;99.90;;;11.78;91.00;101098.38;5015070;28;20271;-74
2023/05/06 06:14:04;;;;;;;19.97;17.97;;;12.30;99.90;;;11.83;90.35;101096.03;5014144;28;20200;-74
2023/05/06 06:16:36;;;;;;;20.23;18.17;;;12.40;99.90;;;11.86;89.42;101095.72;5014222;28;20192;-74
2023/05/06 06:19:08;;;;;;;19.67;17.57;;;12.40;99.90;;;11.84;89.10;101092.34;5014598;28;20224;-74
2023/05/06 06:21:40;;;;;;;21.07;18.87;;;12.40;99.90;;;11.84;90.25;101097.72;5014426;28;20611;-74
2023/05/06 06:24:12;;;;;;;21.93;19.73;;;12.40;99.90;;;11.86;90.42;101104.59;5013941;28;20644;-74
2023/05/06 06:26:44;;;;;;;24.13;19.83;;;12.40;99.90;;;11.85;90.30;101110.16;5014284;28;20199;-74
2023/05/06 06:29:17;;;;;;;21.27;19.00;;;12.40;99.90;;;11.90;89.80;101118.53;5013730;28;20238;-74
2023/05/06 06:31:49;;;;;;;22.53;20.20;;;12.40;99.90;;;11.94;90.22;101114.53;5013980;28;20211;-74
2023/05/06 06:34:21;;;;;;;20.87;18.67;;;12.50;99.90;;;11.97;89.44;101114.22;5013799;28;20283;-74
2023/05/06 06:36:53;;;;;;;22.70;20.30;;;12.50;99.90;;;11.97;90.57;101112.38;5014099;28;20200;-74
2023/05/06 06:39:24;;;;;;;21.83;19.57;;;12.50;99.90;;;11.99;89.88;101115.72;5013995;28;20309;-74
2023/05/06 06:41:58;;;;;;;22.13;19.83;;;12.50;99.90;;;12.02;89.57;101118.09;5014012;28;20202;-75
2023/05/06 06:44:31;;;;;;;22.40;20.00;;;12.60;99.90;;;12.08;89.68;101120.16;5014345;28;20203;-75
2023/05/06 06:47:02;;;;;;;23.10;20.50;;;12.60;99.90;;;12.08;89.71;101127.38;5013569;28;20250;-74
2023/05/06 06:49:34;;;;;;;23.93;21.53;;;12.60;99.90;;;12.10;89.23;101119.97;5014075;28;20597;-75
2023/05/06 06:52:06;;;;;;;21.10;18.90;;;12.60;99.90;;;12.10;89.13;101115.44;5014044;28;20192;-74
2023/05/06 06:54:39;;;;;;;22.77;20.30;;;12.60;99.90;;;12.15;88.81;101123.88;5014137;28;20195;-74
2023/05/06 06:57:11;;;;;;;21.73;19.37;;;12.70;99.90;;;12.14;88.77;101127.56;5014296;28;20191;-74
2023/05/06 06:59:44;;;;;;;21.17;18.97;;;12.70;99.90;;;12.20;88.36;101120.69;5013955;28;20259;-73
2023/05/06 07:02:16;;;;;;;21.07;17.30;;;12.70;99.90;;;12.25;88.94;101129.13;5013951;28;20606;-74
2023/05/06 07:04:48;;;;;;;21.70;18.73;;;12.80;99.90;;;12.23;88.02;101130.25;5014121;28;20192;-73
2023/05/06 07:07:19;;;;;;;19.63;17.53;;;12.80;99.90;;;12.22;87.92;101136.66;5013668;28;20644;-73
2023/05/06 07:09:51;;;;;;;21.03;18.47;;;12.80;99.90;;;12.24;86.78;101142.69;5013819;28;20245;-74
2023/05/06 07:12:25;;;;;;;19.20;17.20;;;12.80;99.90;;;12.32;86.53;101145.41;5013768;28;20212;-74
2023/05/06 07:14:58;;;;;;;18.70;16.70;;;12.80;99.90;;;12.39;86.09;101147.28;5013537;28;20195;-74
2023/05/06 07:17:30;;;;;;;19.03;17.03;;;12.90;99.90;;;12.46;87.13;101137.59;5013131;28;20183;-73
2023/05/06 07:20:02;;;;;;;21.90;17.30;;;13.00;99.90;;;12.50;86.95;101133.56;5013705;28;20227;-75
2023/05/06 07:22:34;;;;;;;19.67;17.50;;;13.10;99.90;;;12.50;87.45;101144.28;5013779;28;20191;-75
2023/05/06 07:25:07;;;;;;;20.90;17.23;;;13.10;99.90;;;12.56;87.22;101138.28;5013860;28;20214;-75
2023/05/06 07:27:39;;;;;;;19.50;17.50;;;13.10;99.90;;;12.59;87.18;101135.28;5013755;28;20278;-74
2023/05/06 07:30:13;;;;;;;19.97;17.90;;;13.20;99.90;;;12.64;86.81;101142.81;5013738;28;20227;-75
2023/05/06 07:32:45;;;;;;;20.90;18.20;;;13.20;99.90;;;12.60;87.07;101155.75;5013211;28;20696;-74
2023/05/06 07:35:17;;;;;;;20.57;17.83;;;13.20;99.90;;;12.63;87.05;101147.38;5013745;28;20198;-73
2023/05/06 07:37:49;;;;;;;22.70;18.47;;;13.20;99.90;;;12.66;87.43;101155.09;5013685;28;20595;-74
2023/05/06 07:40:23;;;;;;;20.77;15.87;;;13.20;99.90;;;12.63;86.27;101160.81;5013465;28;20227;-75
2023/05/06 07:42:54;;;;;;;18.47;16.33;;;13.20;99.90;;;12.68;85.99;101152.25;5013205;28;20243;-72
2023/05/06 07:45:28;;;;;;;20.87;16.30;;;13.20;99.90;;;12.77;85.53;101153.97;5013255;28;20226;-62
2023/05/06 07:48:01;;;;;;;20.60;15.13;;;13.30;99.90;;;12.87;84.91;101156.50;5013012;28;20203;-62
2023/05/06 07:50:35;;;;;;;20.77;15.60;;;13.40;99.90;;;12.95;85.38;101159.19;5013117;28;20234;-75
2023/05/06 07:53:08;;;;;;;19.17;15.87;;;13.50;99.90;;;13.06;85.27;101156.19;5013160;28;20208;-75
2023/05/06 07:55:40;;;;;;;16.80;13.90;;;13.60;99.90;;;13.11;82.58;101156.56;5013210;28;20196;-75
2023/05/06 07:58:12;;;;;;;19.33;15.60;;;13.70;99.90;;;13.16;84.10;101157.75;5013760;28;20231;-75
2023/05/06 08:00:45;;;;;;;16.30;14.23;;;13.70;99.90;;;13.14;82.44;101158.91;5016691;28;20227;-75
2023/05/06 08:03:17;;;;;;;17.60;12.83;;;13.70;99.90;;;13.17;82.21;101163.97;5016718;28;20184;-75
2023/05/06 08:05:49;;;;;;;13.03;11.23;;;13.70;99.90;;;13.20;80.86;101159.09;5016421;28;20637;-74
2023/05/06 08:08:22;;;;;;;12.67;9.93;;;13.70;99.90;;;13.28;81.05;101165.47;5016688;28;20198;-75
2023/05/06 08:10:53;;;;;;;14.80;11.13;;;13.90;99.90;;;13.37;80.82;101170.69;5016445;28;20262;-74
2023/05/06 08:13:26;;;;;;;14.77;12.00;;;13.90;99.90;;;13.48;81.28;101164.97;5016489;28;20207;-75
2023/05/06 08:16:01;;;;;;;14.80;11.67;;;14.00;99.90;;;13.51;80.50;101172.72;5016077;28;20666;-75
2023/05/06 08:18:33;;;;;;;14.70;12.27;;;14.10;99.90;;;13.56;80.62;101175.72;5016169;28;20191;-74
2023/05/06 08:21:05;;;;;;;14.83;12.37;;;14.10;99.90;;;13.67;80.66;101178.06;5016327;28;20196;-74
2023/05/06 08:23:36;;;;;;;14.63;11.10;;;14.20;99.90;;;13.79;80.10;101186.66;5016364;28;20191;-74
2023/05/06 08:26:10;;;;;;;13.20;11.70;;;14.40;99.90;;;13.87;78.11;101183.94;5016223;28;20199;-74
2023/05/06 08:28:42;;;;;;;13.87;11.53;;;14.40;99.90;;;13.93;78.60;101177.88;5016173;28;20276;-75
2023/05/06 08:31:15;;;;;;;15.43;11.50;;;14.50;99.90;;;14.02;81.25;101192.16;5016181;28;20192;-75
2023/05/06 08:33:47;;;;;;;14.33;11.87;;;14.60;99.90;;;14.08;79.96;101189.59;5016050;28;20334;-75
2023/05/06 08:36:18;;;;;;;16.27;12.10;;;14.60;99.90;;;14.12;80.04;101193.63;5016102;28;20196;-75
2023/05/06 08:38:50;;;;;;;14.67;11.80;;;14.70;99.90;;;14.10;79.28;101193.00;5015881;28;20192;-74
2023/05/06 08:41:25;;;;;;;12.47;11.00;;;14.70;99.90;;;14.11;78.71;101196.50;5015635;28;20636;-74
2023/05/06 08:44:01;;;;;;;14.37;11.90;;;14.70;99.90;;;14.15;78.20;101192.44;5015783;28;20557;-73
2023/05/06 08:46:35;;;;;;;16.27;13.57;;;14.70;99.90;;;14.26;80.20;101189.41;5015558;28;20209;-73
2023/05/06 08:49:07;;;;;;;15.07;12.07;;;14.80;99.90;;;14.36;78.50;101195.44;5015414;28;20246;-74
2023/05/06 08:51:43;;;;;;;14.20;12.67;;;14.90;99.90;;;14.41;80.36;101187.72;5015708;28;20192;-74
2023/05/06 08:54:17;;;;;;;14.50;11.73;;;14.90;99.90;;;14.41;77.49;101198.47;5015698;28;20212;-74
2023/05/06 08:56:59;;;;;;;13.57;12.17;;;15.00;99.90;;;14.37;77.32;101189.06;5015696;28;20196;-74
2023/05/06 08:59:33;;;;;;;14.67;11.67;;;14.90;99.90;;;14.43;78.22;101200.97;5015562;28;20223;-74
2023/05/06 09:02:07;;;;;;;14.90;11.60;;;15.00;99.90;;;14.46;78.28;101190.69;5015520;28;20286;-74
2023/05/06 09:04:40;;;;;;;14.63;12.73;;;15.00;99.90;;;14.50;78.86;101189.34;5015534;28;20192;-74
2023/05/06 09:07:12;;;;;;;14.67;11.67;;;15.00;99.90;;;14.71;78.66;101200.38;5015521;28;20198;-74
2023/05/06 09:09:44;;;;;;;15.37;12.23;;;15.20;99.90;;;14.84;79.54;101198.94;5015246;28;20247;-74
2023/05/06 09:12:16;;;;;;;12.17;10.67;;;15.40;99.90;;;14.86;76.22;101196.94;5015400;28;20195;-74
2023/05/06 09:14:53;;;;;;;10.70;9.57;;;15.40;99.90;;;14.85;75.53;101201.47;5015319;28;20219;-74
2023/05/06 09:17:27;;;;;;;10.97;9.23;;;15.40;99.90;;;14.89;75.51;101197.41;5015358;28;20214;-74
2023/05/06 09:20:01;;;;;;;11.83;9.77;;;15.40;99.90;;;14.96;74.53;101194.84;5015267;28;20316;-74
2023/05/06 09:22:37;;;;;;;11.87;10.53;;;15.50;99.90;;;15.07;73.40;101194.41;5015301;28;20186;-74
2023/05/06 09:25:11;;;;;;;14.23;9.83;;;15.60;99.90;;;15.10;75.21;101199.47;5014899;28;20760;-74
2023/05/06 09:27:43;;;;;;;11.97;10.60;;;15.60;99.90;;;15.17;74.90;101203.97;5014800;28;20563;-74
2023/05/06 09:30:17;;;;;;;11.23;8.47;;;15.60;99.90;;;15.17;72.78;101195.06;5014991;28;20231;-74
2023/05/06 09:32:52;;;;;;;15.23;11.57;;;15.70;99.80;;;15.16;72.01;101198.75;5014750;28;20221;-74
2023/05/06 09:35:29;;;;;;;9.87;8.30;;;15.60;99.40;;;15.20;72.85;101194.69;5014677;28;20698;-74
2023/05/06 09:38:00;;;;;;;10.40;8.00;;;15.70;99.80;;;15.23;71.78;101199.72;5014811;28;20191;-74
2023/05/06 09:40:38;;;;;;;10.27;7.80;;;15.70;99.10;;;15.36;70.31;101193.72;5014708;28;20230;-73
2023/05/06 09:43:14;;;;;;;8.97;7.63;;;15.80;98.70;;;15.48;71.72;101192.28;5014473;28;20191;-75
2023/05/06 09:45:46;;;;;;;10.80;8.60;;;16.00;99.30;;;15.56;71.92;101198.47;5014797;28;20294;-75
2023/05/06 09:48:20;;;;;;;9.70;8.50;;;16.10;99.40;;;15.56;70.18;101195.78;5014583;28;20194;-74
2023/05/06 09:50:52;;;;;;;9.53;8.03;;;16.00;98.90;;;15.58;70.78;101198.31;5014579;28;20333;-74
2023/05/06 09:53:27;;;;;;;9.53;7.90;;;16.10;98.80;;;15.64;72.13;101209.22;5014167;28;20202;-74
2023/05/06 09:56:02;;;;;;;11.13;9.07;;;16.10;99.70;;;15.68;70.47;101205.09;5014251;28;20195;-74
2023/05/06 09:58:35;;;;;;;12.40;9.30;;;16.20;99.10;;;15.70;71.04;101203.09;5013412;28;20559;-75
2023/05/06 10:01:12;;;;;;;10.47;8.57;;;16.20;99.00;;;15.72;70.96;101203.72;5014478;28;20192;-75
2023/05/06 10:03:55;;;;;;;11.23;9.50;;;16.20;98.60;;;15.78;69.99;101202.19;5014221;28;20599;-74
2023/05/06 10:06:27;;;;;;;11.97;7.63;;;16.30;98.30;;;15.88;69.20;101205.44;5014421;28;20202;-74
2023/05/06 10:09:00;;;;;;;10.27;8.37;;;16.30;98.20;;;15.97;70.38;101200.78;5014598;28;20196;-74
2023/05/06 10:11:33;;;;;;;7.47;6.60;;;16.40;98.50;;;16.10;68.98;101209.09;5014347;28;20195;-74
2023/05/06 10:14:08;;;;;;;7.80;6.07;;;16.50;97.70;;;16.18;66.04;101217.97;5013947;28;20261;-74
2023/05/06 10:16:43;;;;;;;10.43;7.40;;;16.60;96.50;;;16.21;66.49;101216.75;5014259;28;20249;-74
2023/05/06 10:19:23;;;;;;;12.73;9.60;;;16.70;96.70;;;16.17;67.53;101207.34;5014447;28;20237;-74
2023/05/06 10:22:02;;;;;;;12.80;9.67;;;16.60;97.10;;;16.09;68.33;101207.44;5013998;28;20685;-74
2023/05/06 10:24:45;;;;;;;10.93;8.80;;;16.50;97.60;;;16.07;68.58;101209.47;5014101;28;20668;-73